sensor_id;sensor_type;location;lat;lon;timestamp;P1;durP1;ratioP1;P2;durP2;ratioP2
8704;SDS011;4389;41.932;25.904;2023-12-28T00:02:04;12.20;;;7.17;;
8704;SDS011;4389;41.932;25.904;2023-12-28T00:04:31;22.53;;;12.47;;
8704;SDS011;4389;41.932;25.904;2023-12-28T00:06:59;17.77;;;13.53;;
8704;SDS011;4389;41.932;25.904;2023-12-28T00:09:26;27.23;;;21.00;;
8704;SDS011;4389;41.932;25.904;2023-12-28T00:11:55;36.20;;;27.27;;
8704;SDS011;4389;41.932;25.904;2023-12-28T00:14:21;38.33;;;30.23;;
8704;SDS011;4389;41.932;25.904;2023-12-28T00:16:48;35.23;;;29.57;;
8704;SDS011;4389;41.932;25.904;2023-12-28T00:19:15;38.37;;;30.80;;
8704;SDS011;4389;41.932;25.904;2023-12-28T00:21:42;40.20;;;33.27;;
8704;SDS011;4389;41.932;25.904;2023-12-28T00:24:10;43.63;;;35.20;;
8704;SDS011;4389;41.932;25.904;2023-12-28T00:26:36;40.90;;;33.77;;
8704;SDS011;4389;41.932;25.904;2023-12-28T00:29:05;43.97;;;34.50;;
8704;SDS011;4389;41.932;25.904;2023-12-28T00:31:34;40.30;;;33.43;;
8704;SDS011;4389;41.932;25.904;2023-12-28T00:34:01;42.17;;;33.53;;
8704;SDS011;4389;41.932;25.904;2023-12-28T00:36:27;43.33;;;34.03;;
8704;SDS011;4389;41.932;25.904;2023-12-28T00:38:54;45.27;;;35.10;;
8704;SDS011;4389;41.932;25.904;2023-12-28T00:41:21;41.13;;;31.70;;
8704;SDS011;4389;41.932;25.904;2023-12-28T00:43:48;35.83;;;27.30;;
8704;SDS011;4389;41.932;25.904;2023-12-28T00:46:16;33.53;;;26.77;;
8704;SDS011;4389;41.932;25.904;2023-12-28T00:48:43;48.17;;;35.27;;
8704;SDS011;4389;41.932;25.904;2023-12-28T00:51:10;33.37;;;26.93;;
8704;SDS011;4389;41.932;25.904;2023-12-28T00:53:37;38.97;;;26.73;;
8704;SDS011;4389;41.932;25.904;2023-12-28T00:56:04;40.50;;;32.93;;
8704;SDS011;4389;41.932;25.904;2023-12-28T00:58:31;36.37;;;30.17;;
8704;SDS011;4389;41.932;25.904;2023-12-28T01:00:58;37.67;;;28.97;;
8704;SDS011;4389;41.932;25.904;2023-12-28T01:03:26;45.13;;;31.50;;
8704;SDS011;4389;41.932;25.904;2023-12-28T01:05:53;40.70;;;30.40;;
8704;SDS011;4389;41.932;25.904;2023-12-28T01:08:19;45.63;;;36.47;;
8704;SDS011;4389;41.932;25.904;2023-12-28T01:10:46;33.03;;;27.77;;
8704;SDS011;4389;41.932;25.904;2023-12-28T01:13:13;34.23;;;25.33;;
8704;SDS011;4389;41.932;25.904;2023-12-28T01:15:40;34.70;;;25.80;;
8704;SDS011;4389;41.932;25.904;2023-12-28T01:18:07;19.33;;;15.87;;
8704;SDS011;4389;41.932;25.904;2023-12-28T01:20:35;19.60;;;15.93;;
8704;SDS011;4389;41.932;25.904;2023-12-28T01:23:02;23.67;;;14.93;;
8704;SDS011;4389;41.932;25.904;2023-12-28T01:25:29;15.53;;;12.70;;
8704;SDS011;4389;41.932;25.904;2023-12-28T01:27:56;16.33;;;12.30;;
8704;SDS011;4389;41.932;25.904;2023-12-28T01:30:23;13.47;;;10.17;;
8704;SDS011;4389;41.932;25.904;2023-12-28T01:32:51;14.07;;;9.03;;
8704;SDS011;4389;41.932;25.904;2023-12-28T01:35:18;12.90;;;7.93;;
8704;SDS011;4389;41.932;25.904;2023-12-28T01:37:46;7.90;;;6.67;;
8704;SDS011;4389;41.932;25.904;2023-12-28T01:40:14;16.30;;;7.37;;
8704;SDS011;4389;41.932;25.904;2023-12-28T01:42:41;11.40;;;8.00;;
8704;SDS011;4389;41.932;25.904;2023-12-28T01:45:07;9.20;;;6.10;;
8704;SDS011;4389;41.932;25.904;2023-12-28T01:47:34;20.67;;;16.20;;
8704;SDS011;4389;41.932;25.904;2023-12-28T01:50:01;17.37;;;14.10;;
8704;SDS011;4389;41.932;25.904;2023-12-28T01:52:28;25.67;;;19.00;;
8704;SDS011;4389;41.932;25.904;2023-12-28T01:54:57;30.33;;;22.43;;
8704;SDS011;4389;41.932;25.904;2023-12-28T01:57:24;31.97;;;24.27;;
8704;SDS011;4389;41.932;25.904;2023-12-28T01:59:51;31.67;;;26.40;;
8704;SDS011;4389;41.932;25.904;2023-12-28T02:02:19;32.83;;;27.63;;
8704;SDS011;4389;41.932;25.904;2023-12-28T02:04:47;33.90;;;26.77;;
8704;SDS011;4389;41.932;25.904;2023-12-28T02:07:14;27.80;;;20.57;;
8704;SDS011;4389;41.932;25.904;2023-12-28T02:09:42;18.23;;;13.43;;
8704;SDS011;4389;41.932;25.904;2023-12-28T02:12:10;21.90;;;15.47;;
8704;SDS011;4389;41.932;25.904;2023-12-28T02:14:37;18.53;;;13.87;;
8704;SDS011;4389;41.932;25.904;2023-12-28T02:17:06;21.40;;;14.67;;
8704;SDS011;4389;41.932;25.904;2023-12-28T02:19:45;24.40;;;19.40;;
8704;SDS011;4389;41.932;25.904;2023-12-28T02:22:15;41.30;;;31.83;;
8704;SDS011;4389;41.932;25.904;2023-12-28T02:27:42;58.13;;;46.00;;
8704;SDS011;4389;41.932;25.904;2023-12-28T02:30:11;58.87;;;45.90;;
8704;SDS011;4389;41.932;25.904;2023-12-28T02:32:43;66.43;;;52.47;;
8704;SDS011;4389;41.932;25.904;2023-12-28T02:35:19;78.70;;;61.10;;
8704;SDS011;4389;41.932;25.904;2023-12-28T02:37:50;67.37;;;52.97;;
8704;SDS011;4389;41.932;25.904;2023-12-28T02:40:21;50.27;;;39.13;;
8704;SDS011;4389;41.932;25.904;2023-12-28T02:42:52;43.37;;;33.97;;
8704;SDS011;4389;41.932;25.904;2023-12-28T02:45:19;25.33;;;18.63;;
8704;SDS011;4389;41.932;25.904;2023-12-28T02:47:46;35.03;;;27.80;;
8704;SDS011;4389;41.932;25.904;2023-12-28T02:50:13;59.03;;;40.03;;
8704;SDS011;4389;41.932;25.904;2023-12-28T02:52:40;37.13;;;26.17;;
8704;SDS011;4389;41.932;25.904;2023-12-28T02:55:07;27.37;;;21.80;;
8704;SDS011;4389;41.932;25.904;2023-12-28T02:57:35;29.10;;;19.33;;
8704;SDS011;4389;41.932;25.904;2023-12-28T03:00:04;25.90;;;19.33;;
8704;SDS011;4389;41.932;25.904;2023-12-28T03:02:34;17.03;;;12.90;;
8704;SDS011;4389;41.932;25.904;2023-12-28T03:05:02;17.33;;;13.03;;
8704;SDS011;4389;41.932;25.904;2023-12-28T03:07:30;17.80;;;12.63;;
8704;SDS011;4389;41.932;25.904;2023-12-28T03:09:57;51.40;;;34.47;;
8704;SDS011;4389;41.932;25.904;2023-12-28T03:12:24;41.87;;;23.87;;
8704;SDS011;4389;41.932;25.904;2023-12-28T03:14:52;16.43;;;11.47;;
8704;SDS011;4389;41.932;25.904;2023-12-28T03:17:19;17.67;;;11.20;;
8704;SDS011;4389;41.932;25.904;2023-12-28T03:19:45;15.43;;;11.20;;
8704;SDS011;4389;41.932;25.904;2023-12-28T03:22:12;18.20;;;14.00;;
8704;SDS011;4389;41.932;25.904;2023-12-28T03:24:39;15.10;;;11.47;;
8704;SDS011;4389;41.932;25.904;2023-12-28T03:27:06;20.00;;;11.87;;
8704;SDS011;4389;41.932;25.904;2023-12-28T03:29:33;16.67;;;11.73;;
8704;SDS011;4389;41.932;25.904;2023-12-28T03:32:01;21.20;;;15.60;;
8704;SDS011;4389;41.932;25.904;2023-12-28T03:34:28;21.33;;;15.77;;
8704;SDS011;4389;41.932;25.904;2023-12-28T03:36:55;16.73;;;11.70;;
8704;SDS011;4389;41.932;25.904;2023-12-28T03:39:23;17.70;;;13.27;;
8704;SDS011;4389;41.932;25.904;2023-12-28T03:41:52;13.30;;;9.23;;
8704;SDS011;4389;41.932;25.904;2023-12-28T03:44:19;16.23;;;9.20;;
8704;SDS011;4389;41.932;25.904;2023-12-28T03:46:47;12.93;;;9.90;;
8704;SDS011;4389;41.932;25.904;2023-12-28T03:49:16;17.33;;;11.93;;
8704;SDS011;4389;41.932;25.904;2023-12-28T03:51:43;14.37;;;11.00;;
8704;SDS011;4389;41.932;25.904;2023-12-28T03:54:11;17.43;;;12.47;;
8704;SDS011;4389;41.932;25.904;2023-12-28T03:56:38;17.70;;;12.40;;
8704;SDS011;4389;41.932;25.904;2023-12-28T03:59:06;16.43;;;11.63;;
8704;SDS011;4389;41.932;25.904;2023-12-28T04:01:33;17.17;;;11.60;;
8704;SDS011;4389;41.932;25.904;2023-12-28T04:03:59;24.07;;;16.93;;
8704;SDS011;4389;41.932;25.904;2023-12-28T04:06:28;18.00;;;13.40;;
8704;SDS011;4389;41.932;25.904;2023-12-28T04:08:55;19.10;;;15.33;;
8704;SDS011;4389;41.932;25.904;2023-12-28T04:11:22;22.00;;;16.37;;
8704;SDS011;4389;41.932;25.904;2023-12-28T04:13:49;21.90;;;15.93;;
8704;SDS011;4389;41.932;25.904;2023-12-28T04:16:16;16.10;;;12.27;;
8704;SDS011;4389;41.932;25.904;2023-12-28T04:18:43;12.37;;;10.03;;
8704;SDS011;4389;41.932;25.904;2023-12-28T04:21:10;15.17;;;9.93;;
8704;SDS011;4389;41.932;25.904;2023-12-28T04:23:40;15.53;;;11.93;;
8704;SDS011;4389;41.932;25.904;2023-12-28T04:26:08;14.00;;;10.87;;
8704;SDS011;4389;41.932;25.904;2023-12-28T04:28:35;17.13;;;12.70;;
8704;SDS011;4389;41.932;25.904;2023-12-28T04:31:02;26.37;;;14.43;;
8704;SDS011;4389;41.932;25.904;2023-12-28T04:33:30;16.90;;;12.37;;
8704;SDS011;4389;41.932;25.904;2023-12-28T04:35:57;20.20;;;16.43;;
8704;SDS011;4389;41.932;25.904;2023-12-28T04:38:28;23.57;;;18.63;;
8704;SDS011;4389;41.932;25.904;2023-12-28T04:40:56;26.43;;;19.77;;
8704;SDS011;4389;41.932;25.904;2023-12-28T04:43:23;30.03;;;21.40;;
8704;SDS011;4389;41.932;25.904;2023-12-28T04:45:50;31.27;;;19.93;;
8704;SDS011;4389;41.932;25.904;2023-12-28T04:48:17;28.93;;;16.63;;
8704;SDS011;4389;41.932;25.904;2023-12-28T04:50:46;16.03;;;12.17;;
8704;SDS011;4389;41.932;25.904;2023-12-28T04:53:14;18.27;;;14.50;;
8704;SDS011;4389;41.932;25.904;2023-12-28T04:55:41;28.20;;;13.40;;
8704;SDS011;4389;41.932;25.904;2023-12-28T04:58:09;19.77;;;15.80;;
8704;SDS011;4389;41.932;25.904;2023-12-28T05:00:37;23.60;;;16.50;;
8704;SDS011;4389;41.932;25.904;2023-12-28T05:03:04;29.37;;;15.20;;
8704;SDS011;4389;41.932;25.904;2023-12-28T05:05:31;33.17;;;16.53;;
8704;SDS011;4389;41.932;25.904;2023-12-28T05:07:58;25.20;;;15.77;;
8704;SDS011;4389;41.932;25.904;2023-12-28T05:10:24;18.97;;;13.37;;
8704;SDS011;4389;41.932;25.904;2023-12-28T05:12:52;19.57;;;12.43;;
8704;SDS011;4389;41.932;25.904;2023-12-28T05:15:20;13.93;;;11.43;;
8704;SDS011;4389;41.932;25.904;2023-12-28T05:17:47;22.60;;;11.90;;
8704;SDS011;4389;41.932;25.904;2023-12-28T05:20:15;12.40;;;10.03;;
8704;SDS011;4389;41.932;25.904;2023-12-28T05:22:42;14.63;;;10.43;;
8704;SDS011;4389;41.932;25.904;2023-12-28T05:25:09;15.53;;;10.77;;
8704;SDS011;4389;41.932;25.904;2023-12-28T05:27:36;18.27;;;13.40;;
8704;SDS011;4389;41.932;25.904;2023-12-28T05:30:03;20.00;;;14.57;;
8704;SDS011;4389;41.932;25.904;2023-12-28T05:32:32;17.00;;;14.00;;
8704;SDS011;4389;41.932;25.904;2023-12-28T05:34:59;24.93;;;15.03;;
8704;SDS011;4389;41.932;25.904;2023-12-28T05:37:27;17.50;;;13.93;;
8704;SDS011;4389;41.932;25.904;2023-12-28T05:39:53;16.50;;;12.60;;
8704;SDS011;4389;41.932;25.904;2023-12-28T05:42:20;17.57;;;12.53;;
8704;SDS011;4389;41.932;25.904;2023-12-28T05:44:47;17.90;;;12.87;;
8704;SDS011;4389;41.932;25.904;2023-12-28T05:47:14;27.60;;;12.23;;
8704;SDS011;4389;41.932;25.904;2023-12-28T05:49:42;20.03;;;12.27;;
8704;SDS011;4389;41.932;25.904;2023-12-28T05:52:09;24.87;;;13.17;;
8704;SDS011;4389;41.932;25.904;2023-12-28T05:54:35;21.77;;;10.93;;
8704;SDS011;4389;41.932;25.904;2023-12-28T05:57:02;20.53;;;12.13;;
8704;SDS011;4389;41.932;25.904;2023-12-28T05:59:29;15.60;;;11.77;;
8704;SDS011;4389;41.932;25.904;2023-12-28T06:01:56;17.40;;;13.07;;
8704;SDS011;4389;41.932;25.904;2023-12-28T06:04:23;17.43;;;11.87;;
8704;SDS011;4389;41.932;25.904;2023-12-28T06:06:51;31.10;;;13.53;;
8704;SDS011;4389;41.932;25.904;2023-12-28T06:09:18;28.97;;;12.57;;
8704;SDS011;4389;41.932;25.904;2023-12-28T06:11:44;13.93;;;10.47;;
8704;SDS011;4389;41.932;25.904;2023-12-28T06:14:11;18.37;;;11.30;;
8704;SDS011;4389;41.932;25.904;2023-12-28T06:16:39;16.50;;;11.00;;
8704;SDS011;4389;41.932;25.904;2023-12-28T06:19:05;17.20;;;11.33;;
8704;SDS011;4389;41.932;25.904;2023-12-28T06:21:32;23.80;;;12.33;;
8704;SDS011;4389;41.932;25.904;2023-12-28T06:24:00;17.10;;;12.53;;
8704;SDS011;4389;41.932;25.904;2023-12-28T06:26:28;16.23;;;10.07;;
8704;SDS011;4389;41.932;25.904;2023-12-28T06:28:55;14.80;;;8.83;;
8704;SDS011;4389;41.932;25.904;2023-12-28T06:31:21;14.27;;;8.70;;
8704;SDS011;4389;41.932;25.904;2023-12-28T06:33:48;25.30;;;15.70;;
8704;SDS011;4389;41.932;25.904;2023-12-28T06:36:17;38.20;;;17.03;;
8704;SDS011;4389;41.932;25.904;2023-12-28T06:38:43;22.13;;;14.30;;
8704;SDS011;4389;41.932;25.904;2023-12-28T06:41:12;22.13;;;14.13;;
8704;SDS011;4389;41.932;25.904;2023-12-28T06:43:39;29.43;;;12.73;;
8704;SDS011;4389;41.932;25.904;2023-12-28T06:46:06;16.53;;;10.73;;
8704;SDS011;4389;41.932;25.904;2023-12-28T06:48:33;26.20;;;11.53;;
8704;SDS011;4389;41.932;25.904;2023-12-28T06:51:00;19.87;;;10.07;;
8704;SDS011;4389;41.932;25.904;2023-12-28T06:53:27;17.13;;;10.53;;
8704;SDS011;4389;41.932;25.904;2023-12-28T06:55:54;16.80;;;10.80;;
8704;SDS011;4389;41.932;25.904;2023-12-28T06:58:22;45.77;;;18.90;;
8704;SDS011;4389;41.932;25.904;2023-12-28T07:00:49;17.23;;;12.40;;
8704;SDS011;4389;41.932;25.904;2023-12-28T07:03:16;16.23;;;11.30;;
8704;SDS011;4389;41.932;25.904;2023-12-28T07:05:43;14.67;;;10.67;;
8704;SDS011;4389;41.932;25.904;2023-12-28T07:08:10;27.70;;;13.63;;
8704;SDS011;4389;41.932;25.904;2023-12-28T07:10:36;15.97;;;10.53;;
8704;SDS011;4389;41.932;25.904;2023-12-28T07:13:03;25.43;;;12.60;;
8704;SDS011;4389;41.932;25.904;2023-12-28T07:15:31;21.10;;;11.53;;
8704;SDS011;4389;41.932;25.904;2023-12-28T07:18:01;18.60;;;12.97;;
8704;SDS011;4389;41.932;25.904;2023-12-28T07:20:28;40.53;;;18.60;;
8704;SDS011;4389;41.932;25.904;2023-12-28T07:22:54;21.37;;;13.87;;
8704;SDS011;4389;41.932;25.904;2023-12-28T07:25:21;23.97;;;13.33;;
8704;SDS011;4389;41.932;25.904;2023-12-28T07:27:48;21.10;;;13.33;;
8704;SDS011;4389;41.932;25.904;2023-12-28T07:30:15;27.83;;;15.00;;
8704;SDS011;4389;41.932;25.904;2023-12-28T07:32:44;26.60;;;14.27;;
8704;SDS011;4389;41.932;25.904;2023-12-28T07:35:11;27.53;;;16.37;;
8704;SDS011;4389;41.932;25.904;2023-12-28T07:37:38;41.20;;;21.67;;
8704;SDS011;4389;41.932;25.904;2023-12-28T07:40:06;29.83;;;19.40;;
8704;SDS011;4389;41.932;25.904;2023-12-28T07:42:33;26.57;;;15.77;;
8704;SDS011;4389;41.932;25.904;2023-12-28T07:45:00;32.80;;;16.50;;
8704;SDS011;4389;41.932;25.904;2023-12-28T07:47:27;19.00;;;15.20;;
8704;SDS011;4389;41.932;25.904;2023-12-28T07:49:55;27.63;;;15.80;;
8704;SDS011;4389;41.932;25.904;2023-12-28T07:52:22;20.50;;;16.13;;
8704;SDS011;4389;41.932;25.904;2023-12-28T07:54:49;25.77;;;18.63;;
8704;SDS011;4389;41.932;25.904;2023-12-28T07:57:16;25.10;;;18.70;;
8704;SDS011;4389;41.932;25.904;2023-12-28T07:59:43;39.70;;;20.73;;
8704;SDS011;4389;41.932;25.904;2023-12-28T08:02:09;27.33;;;20.10;;
8704;SDS011;4389;41.932;25.904;2023-12-28T08:04:36;28.47;;;17.87;;
8704;SDS011;4389;41.932;25.904;2023-12-28T08:07:05;29.80;;;16.67;;
8704;SDS011;4389;41.932;25.904;2023-12-28T08:09:33;29.40;;;18.70;;
8704;SDS011;4389;41.932;25.904;2023-12-28T08:12:00;26.87;;;19.00;;
8704;SDS011;4389;41.932;25.904;2023-12-28T08:14:28;22.53;;;17.93;;
8704;SDS011;4389;41.932;25.904;2023-12-28T08:16:55;25.17;;;19.63;;
8704;SDS011;4389;41.932;25.904;2023-12-28T08:19:21;23.30;;;18.33;;
8704;SDS011;4389;41.932;25.904;2023-12-28T08:21:48;29.73;;;20.10;;
8704;SDS011;4389;41.932;25.904;2023-12-28T08:24:16;28.53;;;20.20;;
8704;SDS011;4389;41.932;25.904;2023-12-28T08:26:43;35.80;;;19.53;;
8704;SDS011;4389;41.932;25.904;2023-12-28T08:29:10;23.23;;;18.33;;
8704;SDS011;4389;41.932;25.904;2023-12-28T08:31:37;34.67;;;19.30;;
8704;SDS011;4389;41.932;25.904;2023-12-28T08:34:04;24.40;;;18.00;;
8704;SDS011;4389;41.932;25.904;2023-12-28T08:36:31;24.77;;;18.37;;
8704;SDS011;4389;41.932;25.904;2023-12-28T08:38:59;25.57;;;19.53;;
8704;SDS011;4389;41.932;25.904;2023-12-28T08:41:27;26.70;;;19.83;;
8704;SDS011;4389;41.932;25.904;2023-12-28T08:43:54;27.27;;;19.27;;
8704;SDS011;4389;41.932;25.904;2023-12-28T08:46:21;36.57;;;21.60;;
8704;SDS011;4389;41.932;25.904;2023-12-28T08:48:49;44.70;;;24.57;;
8704;SDS011;4389;41.932;25.904;2023-12-28T08:51:16;38.20;;;23.90;;
8704;SDS011;4389;41.932;25.904;2023-12-28T08:53:43;31.47;;;22.10;;
8704;SDS011;4389;41.932;25.904;2023-12-28T08:56:14;26.00;;;20.87;;
8704;SDS011;4389;41.932;25.904;2023-12-28T08:58:44;24.23;;;16.63;;
8704;SDS011;4389;41.932;25.904;2023-12-28T09:01:15;25.90;;;16.80;;
8704;SDS011;4389;41.932;25.904;2023-12-28T09:03:43;14.50;;;11.20;;
8704;SDS011;4389;41.932;25.904;2023-12-28T09:06:10;18.30;;;11.43;;
8704;SDS011;4389;41.932;25.904;2023-12-28T09:08:36;17.47;;;10.83;;
8704;SDS011;4389;41.932;25.904;2023-12-28T09:11:03;15.87;;;10.20;;
8704;SDS011;4389;41.932;25.904;2023-12-28T09:13:30;30.27;;;10.60;;
8704;SDS011;4389;41.932;25.904;2023-12-28T09:15:58;13.87;;;9.73;;
8704;SDS011;4389;41.932;25.904;2023-12-28T09:18:25;15.50;;;10.27;;
8704;SDS011;4389;41.932;25.904;2023-12-28T09:20:52;14.53;;;9.80;;
8704;SDS011;4389;41.932;25.904;2023-12-28T09:23:19;21.77;;;10.77;;
8704;SDS011;4389;41.932;25.904;2023-12-28T09:25:46;18.33;;;11.37;;
8704;SDS011;4389;41.932;25.904;2023-12-28T09:28:15;19.90;;;10.77;;
8704;SDS011;4389;41.932;25.904;2023-12-28T09:30:42;25.27;;;12.10;;
8704;SDS011;4389;41.932;25.904;2023-12-28T09:33:12;25.20;;;12.00;;
8704;SDS011;4389;41.932;25.904;2023-12-28T09:35:40;20.67;;;11.97;;
8704;SDS011;4389;41.932;25.904;2023-12-28T09:38:07;28.13;;;17.13;;
8704;SDS011;4389;41.932;25.904;2023-12-28T09:40:35;17.70;;;11.63;;
8704;SDS011;4389;41.932;25.904;2023-12-28T09:43:13;22.33;;;12.20;;
8704;SDS011;4389;41.932;25.904;2023-12-28T09:45:46;36.30;;;14.33;;
8704;SDS011;4389;41.932;25.904;2023-12-28T09:48:15;16.47;;;12.33;;
8704;SDS011;4389;41.932;25.904;2023-12-28T09:50:43;20.00;;;13.57;;
8704;SDS011;4389;41.932;25.904;2023-12-28T09:53:12;20.40;;;13.23;;
8704;SDS011;4389;41.932;25.904;2023-12-28T09:55:39;23.83;;;14.17;;
8704;SDS011;4389;41.932;25.904;2023-12-28T09:58:06;17.47;;;12.67;;
8704;SDS011;4389;41.932;25.904;2023-12-28T10:00:35;24.00;;;14.80;;
8704;SDS011;4389;41.932;25.904;2023-12-28T10:03:03;15.20;;;11.70;;
8704;SDS011;4389;41.932;25.904;2023-12-28T10:05:31;29.03;;;14.23;;
8704;SDS011;4389;41.932;25.904;2023-12-28T10:07:59;14.73;;;11.20;;
8704;SDS011;4389;41.932;25.904;2023-12-28T10:10:26;17.07;;;10.83;;
8704;SDS011;4389;41.932;25.904;2023-12-28T10:12:59;19.87;;;11.90;;
8704;SDS011;4389;41.932;25.904;2023-12-28T10:15:27;20.83;;;10.77;;
8704;SDS011;4389;41.932;25.904;2023-12-28T10:17:54;19.63;;;11.23;;
8704;SDS011;4389;41.932;25.904;2023-12-28T10:20:21;16.07;;;11.23;;
8704;SDS011;4389;41.932;25.904;2023-12-28T10:22:49;25.40;;;13.00;;
8704;SDS011;4389;41.932;25.904;2023-12-28T10:25:16;18.70;;;12.20;;
8704;SDS011;4389;41.932;25.904;2023-12-28T10:27:43;24.47;;;11.63;;
8704;SDS011;4389;41.932;25.904;2023-12-28T10:30:10;18.37;;;10.37;;
8704;SDS011;4389;41.932;25.904;2023-12-28T10:32:39;24.20;;;12.07;;
8704;SDS011;4389;41.932;25.904;2023-12-28T10:35:06;17.87;;;10.80;;
8704;SDS011;4389;41.932;25.904;2023-12-28T10:37:34;23.33;;;15.87;;
8704;SDS011;4389;41.932;25.904;2023-12-28T10:40:05;31.90;;;12.20;;
8704;SDS011;4389;41.932;25.904;2023-12-28T10:42:37;18.97;;;12.40;;
8704;SDS011;4389;41.932;25.904;2023-12-28T10:45:14;30.37;;;12.30;;
8704;SDS011;4389;41.932;25.904;2023-12-28T10:47:48;31.73;;;13.43;;
8704;SDS011;4389;41.932;25.904;2023-12-28T10:50:20;24.17;;;12.00;;
8704;SDS011;4389;41.932;25.904;2023-12-28T10:52:53;25.37;;;15.43;;
8704;SDS011;4389;41.932;25.904;2023-12-28T10:55:30;30.17;;;14.03;;
8704;SDS011;4389;41.932;25.904;2023-12-28T10:58:08;20.00;;;11.90;;
8704;SDS011;4389;41.932;25.904;2023-12-28T11:00:40;29.33;;;10.70;;
8704;SDS011;4389;41.932;25.904;2023-12-28T11:03:11;23.43;;;9.87;;
8704;SDS011;4389;41.932;25.904;2023-12-28T11:05:42;22.93;;;7.70;;
8704;SDS011;4389;41.932;25.904;2023-12-28T11:08:10;23.07;;;9.67;;
8704;SDS011;4389;41.932;25.904;2023-12-28T11:10:40;16.43;;;9.17;;
8704;SDS011;4389;41.932;25.904;2023-12-28T11:13:07;12.27;;;6.57;;
8704;SDS011;4389;41.932;25.904;2023-12-28T11:15:36;12.00;;;7.70;;
8704;SDS011;4389;41.932;25.904;2023-12-28T11:18:04;20.30;;;9.77;;
8704;SDS011;4389;41.932;25.904;2023-12-28T11:20:31;12.87;;;6.50;;
8704;SDS011;4389;41.932;25.904;2023-12-28T11:22:59;27.83;;;8.50;;
8704;SDS011;4389;41.932;25.904;2023-12-28T11:25:30;22.80;;;10.80;;
8704;SDS011;4389;41.932;25.904;2023-12-28T11:27:59;17.67;;;7.37;;
8704;SDS011;4389;41.932;25.904;2023-12-28T11:30:26;6.97;;;5.87;;
8704;SDS011;4389;41.932;25.904;2023-12-28T11:32:55;13.93;;;7.47;;
8704;SDS011;4389;41.932;25.904;2023-12-28T11:35:23;11.77;;;5.30;;
8704;SDS011;4389;41.932;25.904;2023-12-28T11:37:51;8.73;;;5.70;;
8704;SDS011;4389;41.932;25.904;2023-12-28T11:40:19;13.07;;;6.33;;
8704;SDS011;4389;41.932;25.904;2023-12-28T11:42:47;26.87;;;6.13;;
8704;SDS011;4389;41.932;25.904;2023-12-28T11:45:18;12.33;;;8.60;;
8704;SDS011;4389;41.932;25.904;2023-12-28T11:47:46;8.47;;;4.93;;
8704;SDS011;4389;41.932;25.904;2023-12-28T11:50:13;11.23;;;6.50;;
8704;SDS011;4389;41.932;25.904;2023-12-28T11:52:40;19.13;;;6.30;;
8704;SDS011;4389;41.932;25.904;2023-12-28T11:55:07;8.43;;;5.00;;
8704;SDS011;4389;41.932;25.904;2023-12-28T11:57:36;10.67;;;5.03;;
8704;SDS011;4389;41.932;25.904;2023-12-28T12:00:03;24.87;;;6.50;;
8704;SDS011;4389;41.932;25.904;2023-12-28T12:02:33;34.00;;;8.93;;
8704;SDS011;4389;41.932;25.904;2023-12-28T12:05:00;20.93;;;7.47;;
8704;SDS011;4389;41.932;25.904;2023-12-28T12:07:28;27.53;;;7.97;;
8704;SDS011;4389;41.932;25.904;2023-12-28T12:09:56;18.27;;;6.93;;
8704;SDS011;4389;41.932;25.904;2023-12-28T12:12:23;14.47;;;7.13;;
8704;SDS011;4389;41.932;25.904;2023-12-28T12:14:50;13.03;;;7.73;;
8704;SDS011;4389;41.932;25.904;2023-12-28T12:17:17;10.40;;;6.47;;
8704;SDS011;4389;41.932;25.904;2023-12-28T12:19:46;17.97;;;7.83;;
8704;SDS011;4389;41.932;25.904;2023-12-28T12:22:16;17.40;;;8.17;;
8704;SDS011;4389;41.932;25.904;2023-12-28T12:24:44;11.93;;;6.50;;
8704;SDS011;4389;41.932;25.904;2023-12-28T12:27:13;12.60;;;7.40;;
8704;SDS011;4389;41.932;25.904;2023-12-28T12:29:40;13.47;;;7.60;;
8704;SDS011;4389;41.932;25.904;2023-12-28T12:32:06;12.27;;;7.60;;
8704;SDS011;4389;41.932;25.904;2023-12-28T12:34:34;17.87;;;8.03;;
8704;SDS011;4389;41.932;25.904;2023-12-28T12:37:02;17.93;;;7.97;;
8704;SDS011;4389;41.932;25.904;2023-12-28T12:39:29;20.17;;;7.67;;
8704;SDS011;4389;41.932;25.904;2023-12-28T12:41:57;10.83;;;7.17;;
8704;SDS011;4389;41.932;25.904;2023-12-28T12:44:24;17.10;;;7.00;;
8704;SDS011;4389;41.932;25.904;2023-12-28T12:46:56;21.53;;;6.93;;
8704;SDS011;4389;41.932;25.904;2023-12-28T12:49:24;16.97;;;7.70;;
8704;SDS011;4389;41.932;25.904;2023-12-28T12:51:51;12.93;;;6.33;;
8704;SDS011;4389;41.932;25.904;2023-12-28T12:54:19;15.17;;;8.07;;
8704;SDS011;4389;41.932;25.904;2023-12-28T12:56:46;10.57;;;6.73;;
8704;SDS011;4389;41.932;25.904;2023-12-28T12:59:13;10.37;;;7.10;;
8704;SDS011;4389;41.932;25.904;2023-12-28T13:01:42;14.13;;;7.50;;
8704;SDS011;4389;41.932;25.904;2023-12-28T13:04:09;11.43;;;6.60;;
8704;SDS011;4389;41.932;25.904;2023-12-28T13:06:36;21.00;;;6.90;;
8704;SDS011;4389;41.932;25.904;2023-12-28T13:09:03;15.57;;;6.40;;
8704;SDS011;4389;41.932;25.904;2023-12-28T13:11:33;13.67;;;6.77;;
8704;SDS011;4389;41.932;25.904;2023-12-28T13:14:00;16.13;;;6.67;;
8704;SDS011;4389;41.932;25.904;2023-12-28T13:16:27;21.20;;;7.43;;
8704;SDS011;4389;41.932;25.904;2023-12-28T13:18:54;11.57;;;7.63;;
8704;SDS011;4389;41.932;25.904;2023-12-28T13:21:21;9.60;;;6.37;;
8704;SDS011;4389;41.932;25.904;2023-12-28T13:23:48;11.50;;;5.77;;
8704;SDS011;4389;41.932;25.904;2023-12-28T13:26:14;14.53;;;6.83;;
8704;SDS011;4389;41.932;25.904;2023-12-28T13:28:42;10.50;;;6.17;;
8704;SDS011;4389;41.932;25.904;2023-12-28T13:31:09;18.47;;;8.43;;
8704;SDS011;4389;41.932;25.904;2023-12-28T13:33:36;12.87;;;6.87;;
8704;SDS011;4389;41.932;25.904;2023-12-28T13:36:03;16.33;;;6.70;;
8704;SDS011;4389;41.932;25.904;2023-12-28T13:38:30;14.77;;;6.93;;
8704;SDS011;4389;41.932;25.904;2023-12-28T13:40:57;8.30;;;5.90;;
8704;SDS011;4389;41.932;25.904;2023-12-28T13:43:24;13.70;;;6.93;;
8704;SDS011;4389;41.932;25.904;2023-12-28T13:45:52;16.97;;;8.63;;
8704;SDS011;4389;41.932;25.904;2023-12-28T13:48:19;24.53;;;13.17;;
8704;SDS011;4389;41.932;25.904;2023-12-28T13:50:46;15.57;;;6.40;;
8704;SDS011;4389;41.932;25.904;2023-12-28T13:53:13;9.23;;;5.63;;
8704;SDS011;4389;41.932;25.904;2023-12-28T13:55:40;9.10;;;6.30;;
8704;SDS011;4389;41.932;25.904;2023-12-28T13:58:06;20.40;;;7.27;;
8704;SDS011;4389;41.932;25.904;2023-12-28T14:00:33;18.03;;;8.43;;
8704;SDS011;4389;41.932;25.904;2023-12-28T14:03:02;19.93;;;8.70;;
8704;SDS011;4389;41.932;25.904;2023-12-28T14:05:29;17.00;;;8.73;;
8704;SDS011;4389;41.932;25.904;2023-12-28T14:07:56;16.27;;;8.27;;
8704;SDS011;4389;41.932;25.904;2023-12-28T14:10:23;18.03;;;9.33;;
8704;SDS011;4389;41.932;25.904;2023-12-28T14:12:50;17.07;;;8.13;;
8704;SDS011;4389;41.932;25.904;2023-12-28T14:15:17;22.03;;;8.80;;
8704;SDS011;4389;41.932;25.904;2023-12-28T14:17:43;19.60;;;9.83;;
8704;SDS011;4389;41.932;25.904;2023-12-28T14:20:12;17.77;;;9.83;;
8704;SDS011;4389;41.932;25.904;2023-12-28T14:22:39;17.87;;;9.60;;
8704;SDS011;4389;41.932;25.904;2023-12-28T14:25:07;19.07;;;12.13;;
8704;SDS011;4389;41.932;25.904;2023-12-28T14:27:37;20.83;;;11.37;;
8704;SDS011;4389;41.932;25.904;2023-12-28T14:30:05;41.30;;;12.73;;
8704;SDS011;4389;41.932;25.904;2023-12-28T14:32:35;27.30;;;14.53;;
8704;SDS011;4389;41.932;25.904;2023-12-28T14:35:03;26.03;;;15.63;;
8704;SDS011;4389;41.932;25.904;2023-12-28T14:37:32;28.63;;;17.17;;
8704;SDS011;4389;41.932;25.904;2023-12-28T14:39:59;25.87;;;13.70;;
8704;SDS011;4389;41.932;25.904;2023-12-28T14:42:31;25.63;;;17.03;;
8704;SDS011;4389;41.932;25.904;2023-12-28T14:44:58;30.67;;;18.23;;